createdAt,value
2023-04-15T00:02:14.842Z,88.21
2023-04-15T00:04:41.533Z,88.26
2023-04-15T00:07:08.692Z,88.34
2023-04-15T00:09:35.334Z,88.60
2023-04-15T00:12:02.111Z,88.65
2023-04-15T00:14:28.815Z,88.92
2023-04-15T00:16:57.366Z,88.67
2023-04-15T00:19:24.773Z,88.66
2023-04-15T00:21:51.518Z,88.69
2023-04-15T00:24:18.200Z,88.87
2023-04-15T00:26:44.828Z,89.36
2023-04-15T00:29:11.450Z,89.63
2023-04-15T00:31:38.378Z,89.77
2023-04-15T00:34:05.003Z,90.23
2023-04-15T00:36:32.106Z,90.14
2023-04-15T00:38:59.182Z,90.11
2023-04-15T00:41:26.017Z,90.27
2023-04-15T00:43:52.858Z,90.30
2023-04-15T00:46:21.376Z,90.46
2023-04-15T00:48:48.216Z,90.55
2023-04-15T00:51:14.957Z,90.85
2023-04-15T00:53:41.501Z,91.41
2023-04-15T00:56:08.151Z,91.43
2023-04-15T00:58:34.900Z,91.38
2023-04-15T01:01:01.975Z,91.47
2023-04-15T01:03:29.601Z,91.75
2023-04-15T01:05:58.346Z,91.57
2023-04-15T01:08:28.589Z,91.67
2023-04-15T01:11:01.570Z,91.53
2023-04-15T01:13:28.745Z,91.33
2023-04-15T01:15:57.805Z,91.30
2023-04-15T01:18:24.661Z,91.30
2023-04-15T01:20:51.721Z,91.41
2023-04-15T01:23:18.689Z,91.44
2023-04-15T01:25:46.693Z,91.88
2023-04-15T01:28:13.381Z,92.21
2023-04-15T01:30:40.047Z,92.29
2023-04-15T01:33:06.776Z,92.79
2023-04-15T01:35:33.673Z,93.09
2023-04-15T01:38:06.258Z,93.10
2023-04-15T01:40:33.804Z,93.11
2023-04-15T01:43:01.277Z,92.92
2023-04-15T01:45:28.851Z,92.65
2023-04-15T01:47:55.865Z,92.57
2023-04-15T01:50:22.553Z,92.52
2023-04-15T01:52:49.157Z,92.50
2023-04-15T01:55:16.131Z,92.01
2023-04-15T01:57:42.797Z,91.81
2023-04-15T02:00:09.857Z,91.69
2023-04-15T02:02:36.710Z,92.19
2023-04-15T02:05:05.639Z,91.92
2023-04-15T02:07:32.477Z,92.19
2023-04-15T02:09:59.246Z,92.49
2023-04-15T02:12:25.999Z,92.30
2023-04-15T02:14:52.665Z,92.08
2023-04-15T02:17:19.351Z,92.30
2023-04-15T02:19:45.980Z,92.45
2023-04-15T02:22:18.457Z,92.21
2023-04-15T02:24:46.659Z,92.43
2023-04-15T02:27:18.052Z,92.48
2023-04-15T02:29:48.440Z,92.79
2023-04-15T02:32:15.099Z,92.81
2023-04-15T02:34:42.913Z,93.02
2023-04-15T02:37:12.123Z,93.10
2023-04-15T02:39:39.042Z,93.06
2023-04-15T02:42:06.175Z,93.12
2023-04-15T02:44:34.121Z,92.80
2023-04-15T02:47:00.773Z,92.48
2023-04-15T02:49:29.828Z,92.38
2023-04-15T02:51:58.178Z,92.10
2023-04-15T02:54:25.044Z,92.20
2023-04-15T02:56:55.299Z,92.22
2023-04-15T02:59:22.047Z,92.34
2023-04-15T03:01:48.772Z,92.29
2023-04-15T03:04:15.691Z,92.31
2023-04-15T03:06:42.594Z,92.05
2023-04-15T03:09:09.472Z,92.47
2023-04-15T03:11:40.655Z,92.42
2023-04-15T03:14:07.315Z,92.79
2023-04-15T03:16:33.946Z,92.60
2023-04-15T03:19:00.962Z,92.72
2023-04-15T03:21:27.903Z,92.74
2023-04-15T03:23:54.476Z,93.07
2023-04-15T03:26:31.737Z,93.13
2023-04-15T03:28:58.569Z,93.10
2023-04-15T03:31:25.541Z,93.13
2023-04-15T03:33:52.111Z,93.02
2023-04-15T03:36:18.854Z,92.97
2023-04-15T03:38:45.826Z,93.34
2023-04-15T03:41:13.193Z,93.23
2023-04-15T03:43:39.788Z,93.31
2023-04-15T03:46:06.876Z,93.32
2023-04-15T03:48:33.548Z,93.26
2023-04-15T03:51:00.157Z,93.43
2023-04-15T03:53:26.776Z,93.16
2023-04-15T03:55:53.472Z,93.16
2023-04-15T03:58:20.049Z,93.34
2023-04-15T04:00:46.715Z,93.56
2023-04-15T04:03:13.796Z,93.48
2023-04-15T04:05:41.612Z,93.73
2023-04-15T04:08:08.363Z,93.75
2023-04-15T04:10:35.214Z,93.59
2023-04-15T04:13:02.100Z,93.68
2023-04-15T04:15:28.697Z,93.69
2023-04-15T04:17:55.581Z,93.45
2023-04-15T04:20:22.204Z,93.72
2023-04-15T04:22:48.843Z,94.03
2023-04-15T04:25:15.467Z,93.88
2023-04-15T04:27:42.276Z,93.83
2023-04-15T04:30:09.138Z,93.78
2023-04-15T04:32:35.854Z,94.17
2023-04-15T04:35:03.734Z,94.28
2023-04-15T04:37:30.456Z,94.35
2023-04-15T04:39:57.061Z,94.13
2023-04-15T04:42:23.729Z,94.19
2023-04-15T04:44:50.394Z,94.31
2023-04-15T04:47:17.168Z,94.29
2023-04-15T04:49:43.806Z,94.26
2023-04-15T04:52:10.470Z,93.94
2023-04-15T04:54:37.349Z,93.73
2023-04-15T04:57:03.907Z,93.22
2023-04-15T04:59:30.826Z,93.06
2023-04-15T05:01:57.563Z,92.55
2023-04-15T05:04:24.266Z,92.22
2023-04-15T05:06:51.012Z,91.99
2023-04-15T05:09:17.974Z,91.51
2023-04-15T05:11:44.594Z,91.24
2023-04-15T05:14:11.209Z,91.48
2023-04-15T05:16:38.027Z,91.30
2023-04-15T05:19:04.647Z,91.14
2023-04-15T05:21:31.850Z,91.05
2023-04-15T05:23:58.465Z,90.76
2023-04-15T05:26:25.171Z,90.62
2023-04-15T05:28:51.802Z,89.99
2023-04-15T05:31:18.562Z,90.00
2023-04-15T05:33:45.301Z,90.01
2023-04-15T05:36:12.224Z,90.08
2023-04-15T05:38:38.919Z,89.70
2023-04-15T05:41:05.836Z,89.28
2023-04-15T05:43:32.593Z,89.24
2023-04-15T05:45:59.275Z,89.42
2023-04-15T05:48:25.973Z,89.17
2023-04-15T05:50:52.724Z,89.01
2023-04-15T05:53:19.463Z,89.06
2023-04-15T05:55:46.189Z,89.20
2023-04-15T05:58:13.081Z,89.70
2023-04-15T06:00:40.485Z,89.40
2023-04-15T06:03:07.917Z,89.39
2023-04-15T06:05:34.753Z,89.12
2023-04-15T06:08:01.631Z,88.80
2023-04-15T06:10:28.370Z,88.69
2023-04-15T06:12:55.082Z,88.47
2023-04-15T06:15:21.766Z,88.45
2023-04-15T06:17:48.443Z,87.99
2023-04-15T06:20:15.244Z,87.90
2023-04-15T06:22:42.021Z,87.53
2023-04-15T06:25:09.416Z,87.01
2023-04-15T06:27:36.087Z,86.62
2023-04-15T06:30:02.849Z,86.88
2023-04-15T06:32:30.146Z,86.66
2023-04-15T06:34:56.823Z,86.74
2023-04-15T06:37:23.497Z,86.42
2023-04-15T06:39:50.089Z,85.68
2023-04-15T06:42:16.808Z,85.03
2023-04-15T06:44:43.701Z,84.36
2023-04-15T06:47:10.320Z,84.50
2023-04-15T06:49:37.142Z,84.07
2023-04-15T06:52:05.047Z,83.78
2023-04-15T06:54:32.181Z,83.32
2023-04-15T06:56:58.827Z,83.08
2023-04-15T06:59:25.487Z,82.96
2023-04-15T07:01:52.239Z,82.78
2023-04-15T07:04:18.963Z,82.64
2023-04-15T07:06:46.176Z,82.24
2023-04-15T07:09:12.898Z,81.80
2023-04-15T07:11:39.513Z,81.21
2023-04-15T07:14:06.781Z,80.67
2023-04-15T07:16:33.522Z,80.60
2023-04-15T07:19:00.372Z,80.03
2023-04-15T07:21:27.755Z,79.77
2023-04-15T07:23:54.447Z,78.26
2023-04-15T07:26:21.077Z,77.57
2023-04-15T07:28:47.637Z,76.26
2023-04-15T07:31:15.048Z,76.83
2023-04-15T07:33:41.926Z,76.06
2023-04-15T07:36:08.800Z,74.91
2023-04-15T07:38:35.355Z,74.57
2023-04-15T07:41:01.941Z,74.55
2023-04-15T07:43:28.509Z,73.32
2023-04-15T07:45:55.558Z,71.28
2023-04-15T07:48:22.110Z,72.74
2023-04-15T07:50:48.649Z,72.86
2023-04-15T07:53:15.507Z,72.53
2023-04-15T07:55:42.053Z,72.50
2023-04-15T07:58:08.457Z,72.10
2023-04-15T08:00:34.929Z,71.22
2023-04-15T08:03:01.839Z,71.21
2023-04-15T08:05:28.797Z,71.07
2023-04-15T08:07:55.285Z,71.41
2023-04-15T08:10:22.371Z,70.60
2023-04-15T08:12:49.612Z,70.54
2023-04-15T08:15:16.839Z,70.05
2023-04-15T08:17:43.679Z,68.92
2023-04-15T08:20:10.502Z,68.02
2023-04-15T08:22:37.122Z,68.02
2023-04-15T08:25:03.765Z,67.10
2023-04-15T08:27:30.218Z,67.23
2023-04-15T08:29:56.721Z,66.77
2023-04-15T08:32:23.235Z,66.55
2023-04-15T08:34:49.777Z,66.32
2023-04-15T08:37:16.423Z,65.65
2023-04-15T08:39:44.228Z,65.08
2023-04-15T08:42:22.830Z,64.75
2023-04-15T08:44:49.654Z,63.64
2023-04-15T08:47:18.705Z,62.58
2023-04-15T08:49:45.420Z,62.22
2023-04-15T08:52:12.406Z,60.51
2023-04-15T08:54:38.968Z,60.62
2023-04-15T08:57:06.900Z,59.52
2023-04-15T08:59:33.493Z,59.06
2023-04-15T09:02:00.119Z,58.44
2023-04-15T09:04:28.214Z,56.60
2023-04-15T09:06:54.762Z,54.58
2023-04-15T09:09:21.340Z,53.52
2023-04-15T09:11:51.549Z,52.20
2023-04-15T09:14:18.592Z,51.29
2023-04-15T09:17:04.298Z,48.76
2023-04-15T09:19:39.911Z,48.96
2023-04-15T09:22:06.438Z,48.89
2023-04-15T09:24:43.599Z,46.63
2023-04-15T09:27:10.277Z,44.04
2023-04-15T09:29:43.236Z,44.23
2023-04-15T09:32:13.645Z,43.72
2023-04-15T09:34:40.189Z,43.00
2023-04-15T09:37:07.810Z,42.18
2023-04-15T09:39:53.463Z,41.96
2023-04-15T09:42:27.059Z,41.85
2023-04-15T09:44:53.919Z,41.50
2023-04-15T09:47:33.021Z,40.93
2023-04-15T09:50:00.474Z,40.47
2023-04-15T09:52:27.551Z,39.18
2023-04-15T09:54:59.374Z,39.35
2023-04-15T09:57:33.667Z,39.32
2023-04-15T10:00:00.290Z,39.12
2023-04-15T10:02:27.361Z,39.46
2023-04-15T10:04:54.782Z,38.57
2023-04-15T10:07:22.604Z,37.73
2023-04-15T10:09:49.481Z,38.62
2023-04-15T10:12:26.777Z,38.47
2023-04-15T10:14:56.833Z,35.94
2023-04-15T10:17:23.752Z,36.43
2023-04-15T10:19:53.381Z,36.50
2023-04-15T10:22:20.016Z,36.80
2023-04-15T10:24:47.304Z,36.44
2023-04-15T10:27:14.239Z,36.52
2023-04-15T10:29:48.041Z,36.21
2023-04-15T10:32:14.936Z,35.24
2023-04-15T10:34:42.459Z,35.46
2023-04-15T10:37:10.061Z,34.38
2023-04-15T10:39:36.530Z,34.70
2023-04-15T10:42:13.095Z,33.69
2023-04-15T10:44:43.707Z,33.07
2023-04-15T10:47:20.276Z,33.06
2023-04-15T10:49:48.154Z,33.26
2023-04-15T10:52:17.058Z,33.41
2023-04-15T10:54:44.208Z,31.89
2023-04-15T10:57:21.962Z,32.60
2023-04-15T11:00:14.873Z,32.31
2023-04-15T11:02:55.135Z,32.06
2023-04-15T11:05:42.105Z,31.85
2023-04-15T11:08:25.966Z,32.13
2023-04-15T11:10:53.176Z,31.89
2023-04-15T11:13:24.861Z,33.37
2023-04-15T11:16:08.400Z,32.58
2023-04-15T11:18:34.968Z,32.83
2023-04-15T11:21:03.675Z,32.66
2023-04-15T11:23:41.543Z,32.60
2023-04-15T11:26:12.584Z,32.50
2023-04-15T11:31:30.103Z,32.11
2023-04-15T11:33:59.050Z,32.46
2023-04-15T11:36:30.204Z,32.35
2023-04-15T11:38:57.862Z,32.87
2023-04-15T11:41:24.431Z,32.47
2023-04-15T11:43:54.012Z,32.03
2023-04-15T11:46:22.006Z,31.96
2023-04-15T11:48:48.696Z,31.86
2023-04-15T11:51:15.343Z,31.59
2023-04-15T11:53:42.138Z,30.67
2023-04-15T11:56:10.372Z,31.09
2023-04-15T11:58:38.327Z,30.63
2023-04-15T12:01:05.607Z,31.14
2023-04-15T12:03:44.065Z,30.73
2023-04-15T12:06:14.144Z,31.06
2023-04-15T12:08:56.311Z,30.90
2023-04-15T12:11:33.349Z,30.58
2023-04-15T12:14:13.789Z,31.31
2023-04-15T12:19:45.569Z,30.79
2023-04-15T12:22:13.107Z,30.44
2023-04-15T12:24:39.948Z,30.81
2023-04-15T12:27:29.950Z,30.95
2023-04-15T12:30:04.035Z,30.75
2023-04-15T12:32:30.584Z,30.37
2023-04-15T12:34:57.175Z,29.29
2023-04-15T12:37:24.030Z,29.78
2023-04-15T12:39:58.908Z,29.66
2023-04-15T12:42:25.554Z,30.20
2023-04-15T12:44:52.279Z,30.11
2023-04-15T12:47:29.222Z,29.09
2023-04-15T12:49:55.984Z,30.13
2023-04-15T12:52:24.719Z,30.18
2023-04-15T12:55:27.879Z,30.01
2023-04-15T12:57:55.049Z,28.64
2023-04-15T13:00:21.796Z,28.58
2023-04-15T13:02:49.231Z,27.32
2023-04-15T13:05:16.199Z,26.89
2023-04-15T13:07:42.766Z,26.97
2023-04-15T13:10:09.590Z,27.06
2023-04-15T13:12:42.967Z,25.40
2023-04-15T13:15:14.635Z,26.62
2023-04-15T13:17:41.263Z,26.83
2023-04-15T13:20:09.023Z,26.19
2023-04-15T13:22:35.628Z,25.40
2023-04-15T13:25:02.184Z,26.41
2023-04-15T13:27:28.892Z,25.30
2023-04-15T13:29:55.755Z,26.57
2023-04-15T13:32:22.457Z,27.66
2023-04-15T13:34:49.057Z,27.46
2023-04-15T13:37:15.824Z,27.51
2023-04-15T13:39:42.557Z,27.79
2023-04-15T13:42:09.315Z,28.14
2023-04-15T13:44:36.024Z,28.29
2023-04-15T13:47:02.604Z,27.57
2023-04-15T13:49:29.632Z,28.01
2023-04-15T13:51:58.858Z,27.83
2023-04-15T13:54:25.550Z,28.32
2023-04-15T13:57:05.700Z,28.42
2023-04-15T13:59:34.998Z,27.85
2023-04-15T14:02:02.067Z,27.88
2023-04-15T14:04:28.858Z,28.34
2023-04-15T14:06:56.431Z,28.54
2023-04-15T14:09:26.150Z,28.45
2023-04-15T14:11:53.118Z,28.38
2023-04-15T14:14:19.713Z,29.00
2023-04-15T14:16:46.394Z,29.04
2023-04-15T14:19:13.120Z,29.45
2023-04-15T14:21:39.776Z,29.10
2023-04-15T14:24:08.262Z,29.03
2023-04-15T14:26:34.886Z,28.95
2023-04-15T14:29:01.574Z,28.83
2023-04-15T14:31:28.398Z,28.44
2023-04-15T14:33:57.956Z,27.01
2023-04-15T14:36:27.640Z,26.64
2023-04-15T14:38:57.065Z,25.74
2023-04-15T14:41:24.035Z,25.40
2023-04-15T14:43:50.764Z,26.33
2023-04-15T14:46:17.505Z,26.74
2023-04-15T14:48:44.280Z,26.97
2023-04-15T14:51:11.118Z,27.17
2023-04-15T14:53:37.828Z,26.84
2023-04-15T14:56:04.678Z,26.20
2023-04-15T14:58:32.822Z,23.62
2023-04-15T15:01:00.117Z,22.94
2023-04-15T15:03:27.120Z,22.06
2023-04-15T15:05:54.296Z,21.70
2023-04-15T15:08:21.115Z,21.40
2023-04-15T15:10:49.759Z,20.71
2023-04-15T15:13:17.827Z,20.90
2023-04-15T15:15:44.679Z,20.81
2023-04-15T15:18:11.587Z,21.08
2023-04-15T15:20:38.571Z,20.56
2023-04-15T15:23:05.270Z,20.89
2023-04-15T15:25:31.951Z,20.56
2023-04-15T15:27:58.680Z,19.93
2023-04-15T15:30:25.550Z,19.77
2023-04-15T15:32:52.326Z,19.95
2023-04-15T15:35:23.143Z,19.47
2023-04-15T15:37:49.807Z,19.50
2023-04-15T15:40:16.452Z,19.65
2023-04-15T15:42:43.137Z,19.44
2023-04-15T15:45:10.217Z,19.55
2023-04-15T15:47:37.040Z,19.47
2023-04-15T15:50:06.017Z,19.38
2023-04-15T15:52:33.042Z,19.68
2023-04-15T15:54:59.825Z,19.90
2023-04-15T15:57:26.529Z,19.84
2023-04-15T16:00:04.772Z,19.85
2023-04-15T16:03:04.254Z,20.19
2023-04-15T16:05:24.714Z,19.87
2023-04-15T16:07:51.516Z,19.90
2023-04-15T16:10:18.128Z,20.29
2023-04-15T16:12:44.814Z,20.25
2023-04-15T16:15:12.561Z,20.11
2023-04-15T16:17:39.268Z,21.18
2023-04-15T16:20:07.081Z,21.49
2023-04-15T16:22:35.022Z,24.63
2023-04-15T16:25:01.809Z,25.55
2023-04-15T16:27:28.764Z,25.70
2023-04-15T16:29:55.341Z,24.82
2023-04-15T16:32:22.057Z,24.67
2023-04-15T16:34:48.776Z,27.30
2023-04-15T16:37:15.533Z,29.61
2023-04-15T16:39:42.236Z,30.58
2023-04-15T16:42:09.712Z,31.77
2023-04-15T16:44:36.326Z,32.81
2023-04-15T16:47:03.251Z,32.97
2023-04-15T16:49:30.399Z,33.37
2023-04-15T16:51:57.708Z,33.86
2023-04-15T16:54:24.367Z,33.64
2023-04-15T16:56:51.184Z,34.66
2023-04-15T16:59:17.802Z,36.24
2023-04-15T17:01:45.436Z,37.41
2023-04-15T17:04:12.083Z,38.69
2023-04-15T17:06:39.102Z,39.49
2023-04-15T17:09:06.001Z,40.41
2023-04-15T17:11:32.994Z,40.91
2023-04-15T17:13:59.673Z,41.28
2023-04-15T17:16:26.621Z,41.71
2023-04-15T17:18:53.303Z,42.08
2023-04-15T17:21:19.905Z,42.46
2023-04-15T17:23:46.801Z,42.90
2023-04-15T17:26:13.469Z,43.06
2023-04-15T17:28:40.074Z,43.43
2023-04-15T17:31:07.247Z,43.97
2023-04-15T17:34:02.053Z,44.15
2023-04-15T17:36:20.582Z,44.81
2023-04-15T17:38:47.251Z,45.63
2023-04-15T17:41:14.108Z,46.42
2023-04-15T17:43:40.729Z,46.94
2023-04-15T17:46:07.918Z,47.29
2023-04-15T17:48:34.706Z,47.60
2023-04-15T17:51:01.353Z,47.98
2023-04-15T17:53:27.953Z,48.20
2023-04-15T17:55:54.876Z,48.65
2023-04-15T17:58:21.652Z,49.53
2023-04-15T18:00:48.345Z,50.33
2023-04-15T18:03:15.472Z,50.40
2023-04-15T18:05:42.730Z,51.19
2023-04-15T18:08:09.894Z,52.10
2023-04-15T18:10:39.211Z,52.46
2023-04-15T18:13:06.490Z,52.16
2023-04-15T18:15:33.475Z,52.87
2023-04-15T18:18:00.544Z,53.54
2023-04-15T18:20:27.921Z,54.20
2023-04-15T18:22:54.739Z,54.45
2023-04-15T18:25:21.505Z,54.73
2023-04-15T18:27:48.237Z,54.79
2023-04-15T18:30:15.125Z,55.18
2023-04-15T18:32:41.925Z,55.17
2023-04-15T18:35:11.753Z,55.38
2023-04-15T18:37:38.654Z,56.01
2023-04-15T18:40:07.246Z,56.80
2023-04-15T18:42:34.050Z,56.70
2023-04-15T18:45:00.956Z,56.95
2023-04-15T18:47:28.009Z,57.17
2023-04-15T18:49:54.699Z,57.64
2023-04-15T18:52:21.547Z,57.76
2023-04-15T18:54:51.378Z,57.86
2023-04-15T18:57:28.472Z,57.99
2023-04-15T19:00:01.545Z,58.28
2023-04-15T19:02:28.394Z,58.71
2023-04-15T19:04:55.556Z,59.19
2023-04-15T19:07:23.454Z,59.51
2023-04-15T19:09:50.241Z,59.24
2023-04-15T19:12:16.831Z,59.47
2023-04-15T19:14:43.457Z,59.57
2023-04-15T19:17:10.288Z,59.44
2023-04-15T19:19:37.087Z,60.34
2023-04-15T19:22:03.695Z,60.25
2023-04-15T19:24:33.883Z,60.38
2023-04-15T19:27:01.765Z,60.76
2023-04-15T19:29:31.481Z,60.54
2023-04-15T19:31:58.252Z,60.86
2023-04-15T19:34:25.195Z,60.68
2023-04-15T19:36:51.974Z,60.97
2023-04-15T19:39:19.743Z,61.57
2023-04-15T19:41:47.341Z,62.02
2023-04-15T19:44:14.256Z,62.48
2023-04-15T19:46:43.614Z,62.60
2023-04-15T19:49:10.954Z,63.22
2023-04-15T19:51:37.582Z,63.17
2023-04-15T19:54:04.238Z,64.55
2023-04-15T19:56:33.606Z,64.08
2023-04-15T19:59:02.149Z,64.35
2023-04-15T20:01:28.963Z,64.16
2023-04-15T20:03:56.077Z,63.91
2023-04-15T20:06:22.942Z,64.34
2023-04-15T20:08:49.795Z,64.29
2023-04-15T20:11:17.177Z,64.19
2023-04-15T20:13:43.896Z,63.55
2023-04-15T20:16:11.849Z,63.95
2023-04-15T20:18:38.485Z,64.25
2023-04-15T20:21:05.117Z,64.15
2023-04-15T20:23:31.858Z,64.75
2023-04-15T20:25:58.512Z,65.58
2023-04-15T20:28:27.535Z,66.07
2023-04-15T20:30:54.162Z,66.15
2023-04-15T20:33:22.361Z,66.10
2023-04-15T20:35:49.008Z,66.62
2023-04-15T20:38:16.393Z,67.31
2023-04-15T20:40:43.450Z,66.71
2023-04-15T20:43:10.286Z,66.46
2023-04-15T20:45:37.273Z,66.84
2023-04-15T20:48:04.221Z,67.98
2023-04-15T20:50:31.253Z,68.85
2023-04-15T20:52:57.873Z,68.52
2023-04-15T20:55:24.512Z,69.00
2023-04-15T20:57:51.382Z,68.68
2023-04-15T21:00:18.071Z,68.74
2023-04-15T21:02:44.780Z,68.75
2023-04-15T21:05:11.523Z,69.10
2023-04-15T21:07:38.156Z,68.74
2023-04-15T21:10:05.054Z,68.71
2023-04-15T21:12:31.688Z,68.87
2023-04-15T21:14:58.342Z,68.97
2023-04-15T21:17:25.162Z,69.71
2023-04-15T21:19:51.825Z,70.71
2023-04-15T21:22:18.409Z,70.96
2023-04-15T21:24:44.959Z,71.35
2023-04-15T21:27:11.566Z,70.59
2023-04-15T21:29:40.387Z,70.92
2023-04-15T21:32:07.129Z,71.65
2023-04-15T21:34:33.936Z,71.86
2023-04-15T21:37:00.650Z,72.15
2023-04-15T21:39:27.287Z,72.57
2023-04-15T21:41:54.036Z,72.99
2023-04-15T21:44:20.675Z,72.46
2023-04-15T21:46:47.318Z,72.44
2023-04-15T21:49:14.160Z,72.17
2023-04-15T21:51:40.960Z,73.29
2023-04-15T21:54:07.702Z,73.13
2023-04-15T21:56:34.331Z,73.43
2023-04-15T21:59:01.217Z,73.82
2023-04-15T22:01:27.910Z,73.97
2023-04-15T22:03:54.822Z,74.04
2023-04-15T22:06:22.032Z,74.31
2023-04-15T22:09:11.358Z,74.14
2023-04-15T22:11:38.024Z,74.27
2023-04-15T22:14:05.803Z,74.26
2023-04-15T22:16:32.454Z,73.97
2023-04-15T22:18:59.097Z,73.89
2023-04-15T22:21:26.685Z,73.69
2023-04-15T22:23:53.414Z,74.37
2023-04-15T22:26:39.909Z,74.58
2023-04-15T22:29:06.953Z,74.73
2023-04-15T22:31:33.725Z,74.94
2023-04-15T22:34:00.284Z,74.99
2023-04-15T22:36:27.432Z,74.85
2023-04-15T22:38:54.175Z,74.96
2023-04-15T22:41:20.997Z,75.07
2023-04-15T22:43:47.642Z,75.56
2023-04-15T22:46:14.617Z,76.03
2023-04-15T22:48:42.532Z,76.46
2023-04-15T22:51:09.250Z,76.98
2023-04-15T22:53:35.950Z,77.28
2023-04-15T22:56:02.714Z,77.44
2023-04-15T22:58:32.124Z,77.62
2023-04-15T23:00:59.214Z,77.68
2023-04-15T23:03:26.011Z,77.75
2023-04-15T23:05:52.800Z,78.13
2023-04-15T23:08:19.374Z,78.76
2023-04-15T23:10:46.520Z,78.34
2023-04-15T23:13:13.212Z,78.07
2023-04-15T23:15:39.878Z,78.43
2023-04-15T23:18:06.611Z,78.60
2023-04-15T23:20:33.990Z,77.90
2023-04-15T23:23:00.707Z,78.37
2023-04-15T23:25:27.364Z,78.86
2023-04-15T23:27:53.970Z,78.93
2023-04-15T23:30:20.588Z,79.10
2023-04-15T23:32:47.255Z,79.52
2023-04-15T23:35:13.869Z,79.40
2023-04-15T23:37:40.655Z,79.52
2023-04-15T23:40:07.907Z,79.47
2023-04-15T23:42:34.551Z,79.85
2023-04-15T23:45:01.253Z,80.26
2023-04-15T23:47:27.875Z,80.08
2023-04-15T23:49:54.468Z,80.16
2023-04-15T23:52:21.180Z,80.54
2023-04-15T23:54:47.805Z,80.35
2023-04-15T23:57:14.488Z,80.59
2023-04-15T23:59:41.098Z,80.76
